sensor_id;sensor_type;location;lat;lon;timestamp;pressure;altitude;pressure_sealevel;temperature;humidity
28312;BME280;15572;48.810;9.148;2023-05-09T00:03:00;98432.09;;;13.71;100.00
28312;BME280;15572;48.810;9.148;2023-05-09T00:07:56;98427.91;;;13.69;100.00
28312;BME280;15572;48.810;9.148;2023-05-09T00:12:53;98426.00;;;13.63;100.00
28312;BME280;15572;48.810;9.148;2023-05-09T00:17:50;98424.38;;;13.62;100.00
28312;BME280;15572;48.810;9.148;2023-05-09T00:22:48;98419.72;;;13.69;100.00
28312;BME280;15572;48.810;9.148;2023-05-09T00:27:45;98412.41;;;13.76;100.00
28312;BME280;15572;48.810;9.148;2023-05-09T00:32:41;98400.88;;;13.80;100.00
28312;BME280;15572;48.810;9.148;2023-05-09T00:37:38;98400.25;;;13.85;100.00
28312;BME280;15572;48.810;9.148;2023-05-09T00:42:35;98395.25;;;13.88;100.00
28312;BME280;15572;48.810;9.148;2023-05-09T00:47:32;98395.00;;;13.90;100.00
28312;BME280;15572;48.810;9.148;2023-05-09T00:52:29;98387.69;;;13.90;100.00
28312;BME280;15572;48.810;9.148;2023-05-09T00:57:28;98376.59;;;13.92;100.00
28312;BME280;15572;48.810;9.148;2023-05-09T01:02:26;98374.28;;;13.89;100.00
28312;BME280;15572;48.810;9.148;2023-05-09T01:07:28;98366.75;;;13.91;100.00
28312;BME280;15572;48.810;9.148;2023-05-09T01:12:35;98369.06;;;13.94;100.00
28312;BME280;15572;48.810;9.148;2023-05-09T01:17:39;98361.94;;;13.93;100.00
28312;BME280;15572;48.810;9.148;2023-05-09T01:22:42;98361.09;;;13.93;100.00
28312;BME280;15572;48.810;9.148;2023-05-09T01:27:48;98365.06;;;13.90;100.00
28312;BME280;15572;48.810;9.148;2023-05-09T01:32:50;98365.09;;;13.83;100.00
28312;BME280;15572;48.810;9.148;2023-05-09T01:37:48;98370.31;;;13.85;100.00
28312;BME280;15572;48.810;9.148;2023-05-09T01:42:49;98358.38;;;13.86;100.00
28312;BME280;15572;48.810;9.148;2023-05-09T01:47:48;98355.88;;;13.84;100.00
28312;BME280;15572;48.810;9.148;2023-05-09T01:52:46;98357.16;;;13.82;100.00
28312;BME280;15572;48.810;9.148;2023-05-09T01:57:44;98347.94;;;13.83;100.00
28312;BME280;15572;48.810;9.148;2023-05-09T02:02:41;98342.91;;;13.80;100.00
28312;BME280;15572;48.810;9.148;2023-05-09T02:07:40;98342.50;;;13.76;100.00
28312;BME280;15572;48.810;9.148;2023-05-09T02:12:37;98345.44;;;13.68;100.00
28312;BME280;15572;48.810;9.148;2023-05-09T02:17:34;98349.19;;;13.74;100.00
28312;BME280;15572;48.810;9.148;2023-05-09T02:22:30;98348.41;;;13.67;100.00
28312;BME280;15572;48.810;9.148;2023-05-09T02:27:28;98352.16;;;13.59;100.00
28312;BME280;15572;48.810;9.148;2023-05-09T02:32:28;98345.88;;;13.59;100.00
28312;BME280;15572;48.810;9.148;2023-05-09T02:37:26;98349.00;;;13.62;100.00
28312;BME280;15572;48.810;9.148;2023-05-09T02:42:24;98347.75;;;13.65;100.00
28312;BME280;15572;48.810;9.148;2023-05-09T02:47:22;98334.78;;;13.67;100.00
28312;BME280;15572;48.810;9.148;2023-05-09T02:52:19;98332.28;;;13.65;100.00
28312;BME280;15572;48.810;9.148;2023-05-09T02:57:16;98313.88;;;13.67;100.00
28312;BME280;15572;48.810;9.148;2023-05-09T03:02:13;98314.91;;;13.66;100.00
28312;BME280;15572;48.810;9.148;2023-05-09T03:07:10;98302.75;;;13.62;100.00
28312;BME280;15572;48.810;9.148;2023-05-09T03:12:07;98306.97;;;13.58;100.00
28312;BME280;15572;48.810;9.148;2023-05-09T03:17:04;98312.84;;;13.55;100.00
28312;BME280;15572;48.810;9.148;2023-05-09T03:22:00;98306.16;;;13.51;100.00
28312;BME280;15572;48.810;9.148;2023-05-09T03:26:58;98305.97;;;13.46;100.00
28312;BME280;15572;48.810;9.148;2023-05-09T03:31:54;98296.97;;;13.39;100.00
28312;BME280;15572;48.810;9.148;2023-05-09T03:36:51;98295.09;;;13.39;100.00
28312;BME280;15572;48.810;9.148;2023-05-09T03:41:47;98300.34;;;13.34;100.00
28312;BME280;15572;48.810;9.148;2023-05-09T03:46:45;98292.19;;;13.28;100.00
28312;BME280;15572;48.810;9.148;2023-05-09T03:51:41;98292.81;;;13.30;100.00
28312;BME280;15572;48.810;9.148;2023-05-09T03:56:38;98290.09;;;13.30;100.00
28312;BME280;15572;48.810;9.148;2023-05-09T04:01:34;98296.78;;;13.27;100.00
28312;BME280;15572;48.810;9.148;2023-05-09T04:06:32;98295.34;;;13.25;100.00
28312;BME280;15572;48.810;9.148;2023-05-09T04:11:29;98300.97;;;13.23;100.00
28312;BME280;15572;48.810;9.148;2023-05-09T04:16:25;98283.81;;;13.16;100.00
28312;BME280;15572;48.810;9.148;2023-05-09T04:21:22;98291.75;;;13.04;100.00
28312;BME280;15572;48.810;9.148;2023-05-09T04:26:20;98281.09;;;13.03;100.00
28312;BME280;15572;48.810;9.148;2023-05-09T04:31:17;98288.03;;;13.12;100.00
28312;BME280;15572;48.810;9.148;2023-05-09T04:36:13;98288.63;;;13.14;100.00
28312;BME280;15572;48.810;9.148;2023-05-09T04:41:10;98295.53;;;13.17;100.00
28312;BME280;15572;48.810;9.148;2023-05-09T04:46:07;98289.47;;;13.21;100.00
28312;BME280;15572;48.810;9.148;2023-05-09T04:51:04;98302.63;;;13.31;100.00
28312;BME280;15572;48.810;9.148;2023-05-09T04:56:00;98295.94;;;13.40;100.00
28312;BME280;15572;48.810;9.148;2023-05-09T05:00:57;98294.84;;;13.54;100.00
28312;BME280;15572;48.810;9.148;2023-05-09T05:05:55;98290.00;;;13.63;100.00
28312;BME280;15572;48.810;9.148;2023-05-09T05:10:51;98280.78;;;13.70;100.00
28312;BME280;15572;48.810;9.148;2023-05-09T05:15:48;98285.97;;;13.78;100.00
28312;BME280;15572;48.810;9.148;2023-05-09T05:20:44;98289.31;;;13.87;100.00
28312;BME280;15572;48.810;9.148;2023-05-09T05:25:42;98287.63;;;13.93;100.00
28312;BME280;15572;48.810;9.148;2023-05-09T05:30:39;98283.19;;;13.98;100.00
28312;BME280;15572;48.810;9.148;2023-05-09T05:35:35;98284.41;;;14.09;100.00
28312;BME280;15572;48.810;9.148;2023-05-09T05:40:32;98274.97;;;14.11;100.00
28312;BME280;15572;48.810;9.148;2023-05-09T05:45:29;98283.13;;;14.11;100.00
28312;BME280;15572;48.810;9.148;2023-05-09T05:50:26;98277.00;;;14.22;100.00
28312;BME280;15572;48.810;9.148;2023-05-09T05:55:23;98275.09;;;14.29;100.00
28312;BME280;15572;48.810;9.148;2023-05-09T06:00:19;98279.41;;;14.44;100.00
28312;BME280;15572;48.810;9.148;2023-05-09T06:05:17;98267.81;;;14.55;100.00
28312;BME280;15572;48.810;9.148;2023-05-09T06:10:14;98267.13;;;14.66;100.00
28312;BME280;15572;48.810;9.148;2023-05-09T06:15:11;98260.50;;;14.80;100.00
28312;BME280;15572;48.810;9.148;2023-05-09T06:20:08;98260.19;;;14.95;100.00
28312;BME280;15572;48.810;9.148;2023-05-09T06:25:06;98250.28;;;15.00;100.00
28312;BME280;15572;48.810;9.148;2023-05-09T06:30:03;98253.34;;;15.10;100.00
28312;BME280;15572;48.810;9.148;2023-05-09T06:35:00;98249.09;;;15.14;100.00
28312;BME280;15572;48.810;9.148;2023-05-09T06:39:56;98239.88;;;15.15;100.00
28312;BME280;15572;48.810;9.148;2023-05-09T06:44:54;98243.19;;;15.17;100.00
28312;BME280;15572;48.810;9.148;2023-05-09T06:49:50;98238.34;;;15.20;100.00
28312;BME280;15572;48.810;9.148;2023-05-09T06:54:47;98242.28;;;15.24;100.00
28312;BME280;15572;48.810;9.148;2023-05-09T06:59:43;98229.50;;;15.24;100.00
28312;BME280;15572;48.810;9.148;2023-05-09T07:04:48;98233.00;;;15.31;100.00
28312;BME280;15572;48.810;9.148;2023-05-09T07:09:47;98216.78;;;15.36;100.00
28312;BME280;15572;48.810;9.148;2023-05-09T07:14:43;98218.94;;;15.52;100.00
28312;BME280;15572;48.810;9.148;2023-05-09T07:19:41;98203.25;;;15.66;100.00
28312;BME280;15572;48.810;9.148;2023-05-09T07:24:38;98202.63;;;15.82;100.00
28312;BME280;15572;48.810;9.148;2023-05-09T07:29:34;98191.16;;;15.92;100.00
28312;BME280;15572;48.810;9.148;2023-05-09T07:34:30;98179.59;;;16.08;100.00
28312;BME280;15572;48.810;9.148;2023-05-09T07:39:28;98173.09;;;16.21;100.00
28312;BME280;15572;48.810;9.148;2023-05-09T07:44:25;98157.69;;;16.26;100.00
28312;BME280;15572;48.810;9.148;2023-05-09T07:49:21;98155.22;;;16.36;100.00
28312;BME280;15572;48.810;9.148;2023-05-09T07:54:18;98158.44;;;16.45;100.00
28312;BME280;15572;48.810;9.148;2023-05-09T07:59:15;98151.56;;;16.54;100.00
28312;BME280;15572;48.810;9.148;2023-05-09T08:04:12;98146.72;;;16.68;100.00
28312;BME280;15572;48.810;9.148;2023-05-09T08:09:08;98124.53;;;16.88;100.00
28312;BME280;15572;48.810;9.148;2023-05-09T08:14:05;98121.44;;;16.96;100.00
28312;BME280;15572;48.810;9.148;2023-05-09T08:19:03;98117.84;;;16.95;100.00
28312;BME280;15572;48.810;9.148;2023-05-09T08:23:59;98104.66;;;17.04;100.00
28312;BME280;15572;48.810;9.148;2023-05-09T08:28:56;98092.28;;;17.13;100.00
28312;BME280;15572;48.810;9.148;2023-05-09T08:33:52;98091.44;;;17.24;100.00
28312;BME280;15572;48.810;9.148;2023-05-09T08:38:50;98083.41;;;17.46;100.00
28312;BME280;15572;48.810;9.148;2023-05-09T08:43:47;98066.44;;;17.72;100.00
28312;BME280;15572;48.810;9.148;2023-05-09T08:48:44;98079.66;;;17.92;100.00
28312;BME280;15572;48.810;9.148;2023-05-09T08:53:41;98073.13;;;18.09;100.00
28312;BME280;15572;48.810;9.148;2023-05-09T08:58:40;98078.44;;;18.33;100.00
28312;BME280;15572;48.810;9.148;2023-05-09T09:03:37;98071.72;;;18.40;100.00
28312;BME280;15572;48.810;9.148;2023-05-09T09:08:34;98076.22;;;18.46;100.00
28312;BME280;15572;48.810;9.148;2023-05-09T09:13:31;98069.06;;;18.45;100.00
28312;BME280;15572;48.810;9.148;2023-05-09T09:18:32;98061.84;;;18.39;100.00
28312;BME280;15572;48.810;9.148;2023-05-09T09:23:30;98061.00;;;18.39;100.00
28312;BME280;15572;48.810;9.148;2023-05-09T09:28:27;98048.22;;;18.44;100.00
28312;BME280;15572;48.810;9.148;2023-05-09T09:33:25;98040.69;;;18.68;100.00
28312;BME280;15572;48.810;9.148;2023-05-09T09:38:24;98029.63;;;19.02;100.00
28312;BME280;15572;48.810;9.148;2023-05-09T09:43:26;98020.63;;;19.28;100.00
28312;BME280;15572;48.810;9.148;2023-05-09T09:48:23;98019.91;;;19.38;100.00
28312;BME280;15572;48.810;9.148;2023-05-09T09:53:20;98006.75;;;19.40;100.00
28312;BME280;15572;48.810;9.148;2023-05-09T09:58:19;97993.09;;;19.45;100.00
28312;BME280;15572;48.810;9.148;2023-05-09T10:03:18;97979.47;;;19.50;100.00
28312;BME280;15572;48.810;9.148;2023-05-09T10:08:15;97979.53;;;19.87;99.21
28312;BME280;15572;48.810;9.148;2023-05-09T10:13:11;97965.84;;;19.92;99.23
28312;BME280;15572;48.810;9.148;2023-05-09T10:18:11;97955.81;;;19.75;100.00
28312;BME280;15572;48.810;9.148;2023-05-09T10:23:13;97953.88;;;19.71;99.04
28312;BME280;15572;48.810;9.148;2023-05-09T10:28:12;97939.84;;;19.72;98.56
28312;BME280;15572;48.810;9.148;2023-05-09T10:33:14;97932.53;;;19.83;97.78
28312;BME280;15572;48.810;9.148;2023-05-09T10:38:11;97931.31;;;20.01;96.30
28312;BME280;15572;48.810;9.148;2023-05-09T10:43:08;97923.91;;;20.38;91.58
28312;BME280;15572;48.810;9.148;2023-05-09T10:48:05;97915.09;;;20.88;88.13
28312;BME280;15572;48.810;9.148;2023-05-09T10:53:10;97912.50;;;21.39;82.79
28312;BME280;15572;48.810;9.148;2023-05-09T10:58:18;97900.91;;;21.37;81.72
28312;BME280;15572;48.810;9.148;2023-05-09T11:03:15;97888.88;;;21.63;79.13
28312;BME280;15572;48.810;9.148;2023-05-09T11:08:18;97877.56;;;22.05;78.04
28312;BME280;15572;48.810;9.148;2023-05-09T11:13:19;97856.88;;;22.08;78.36
28312;BME280;15572;48.810;9.148;2023-05-09T11:18:17;97860.25;;;22.84;77.33
28312;BME280;15572;48.810;9.148;2023-05-09T11:23:14;97846.97;;;23.35;73.69
28312;BME280;15572;48.810;9.148;2023-05-09T11:28:25;97844.34;;;23.93;70.59
28312;BME280;15572;48.810;9.148;2023-05-09T11:33:23;97830.06;;;23.81;71.39
28312;BME280;15572;48.810;9.148;2023-05-09T11:38:20;97816.59;;;24.03;70.65
28312;BME280;15572;48.810;9.148;2023-05-09T11:43:18;97813.44;;;23.86;64.87
28312;BME280;15572;48.810;9.148;2023-05-09T11:48:20;97805.47;;;23.79;61.40
28312;BME280;15572;48.810;9.148;2023-05-09T11:58:13;97784.06;;;24.43;60.47
28312;BME280;15572;48.810;9.148;2023-05-09T12:03:11;97778.13;;;24.54;57.62
28312;BME280;15572;48.810;9.148;2023-05-09T12:08:08;97766.09;;;24.88;57.21
28312;BME280;15572;48.810;9.148;2023-05-09T12:13:05;97759.91;;;25.28;55.27
28312;BME280;15572;48.810;9.148;2023-05-09T12:18:03;97749.16;;;25.27;54.50
28312;BME280;15572;48.810;9.148;2023-05-09T12:23:02;97749.75;;;25.24;54.95
28312;BME280;15572;48.810;9.148;2023-05-09T12:27:58;97733.75;;;25.21;54.34
28312;BME280;15572;48.810;9.148;2023-05-09T12:32:55;97731.31;;;24.58;55.20
28312;BME280;15572;48.810;9.148;2023-05-09T12:37:55;97719.06;;;24.45;54.63
28312;BME280;15572;48.810;9.148;2023-05-09T12:42:56;97706.94;;;24.60;54.53
28312;BME280;15572;48.810;9.148;2023-05-09T12:47:55;97707.09;;;24.50;56.47
28312;BME280;15572;48.810;9.148;2023-05-09T12:52:52;97699.53;;;24.37;58.10
28312;BME280;15572;48.810;9.148;2023-05-09T12:57:58;97689.13;;;24.28;56.22
28312;BME280;15572;48.810;9.148;2023-05-09T13:02:55;97676.94;;;24.06;55.56
28312;BME280;15572;48.810;9.148;2023-05-09T13:07:55;97671.31;;;23.92;56.27
28312;BME280;15572;48.810;9.148;2023-05-09T13:12:52;97659.56;;;23.58;57.41
28312;BME280;15572;48.810;9.148;2023-05-09T13:17:50;97654.69;;;23.49;58.26
28312;BME280;15572;48.810;9.148;2023-05-09T13:22:47;97640.13;;;23.39;57.32
28312;BME280;15572;48.810;9.148;2023-05-09T13:27:44;97631.34;;;23.61;56.10
28312;BME280;15572;48.810;9.148;2023-05-09T13:32:40;97630.06;;;23.53;57.20
28312;BME280;15572;48.810;9.148;2023-05-09T13:37:38;97619.97;;;23.38;60.28
28312;BME280;15572;48.810;9.148;2023-05-09T13:42:35;97610.16;;;23.27;61.04
28312;BME280;15572;48.810;9.148;2023-05-09T13:47:31;97601.81;;;23.32;60.20
28312;BME280;15572;48.810;9.148;2023-05-09T13:52:28;97602.19;;;23.21;59.89
28312;BME280;15572;48.810;9.148;2023-05-09T13:57:26;97606.47;;;23.08;60.31
28312;BME280;15572;48.810;9.148;2023-05-09T14:02:22;97596.41;;;22.93;61.27
28312;BME280;15572;48.810;9.148;2023-05-09T14:07:19;97588.31;;;22.68;61.57
28312;BME280;15572;48.810;9.148;2023-05-09T14:12:15;97576.38;;;22.44;61.20
28312;BME280;15572;48.810;9.148;2023-05-09T14:17:13;97574.06;;;22.22;61.03
28312;BME280;15572;48.810;9.148;2023-05-09T14:22:10;97565.34;;;22.05;61.62
28312;BME280;15572;48.810;9.148;2023-05-09T14:27:06;97555.22;;;21.90;62.26
28312;BME280;15572;48.810;9.148;2023-05-09T14:32:03;97551.19;;;21.72;62.96
28312;BME280;15572;48.810;9.148;2023-05-09T14:37:02;97555.03;;;21.71;63.95
28312;BME280;15572;48.810;9.148;2023-05-09T14:41:59;97537.16;;;21.64;64.04
28312;BME280;15572;48.810;9.148;2023-05-09T14:46:56;97539.09;;;21.58;64.76
28312;BME280;15572;48.810;9.148;2023-05-09T14:51:53;97539.69;;;21.55;65.43
28312;BME280;15572;48.810;9.148;2023-05-09T14:56:50;97536.91;;;21.60;64.30
28312;BME280;15572;48.810;9.148;2023-05-09T15:01:47;97524.56;;;22.02;62.83
28312;BME280;15572;48.810;9.148;2023-05-09T15:06:45;97519.97;;;22.31;60.69
28312;BME280;15572;48.810;9.148;2023-05-09T15:11:41;97517.56;;;22.53;60.54
28312;BME280;15572;48.810;9.148;2023-05-09T15:16:41;97509.59;;;22.52;57.94
28312;BME280;15572;48.810;9.148;2023-05-09T15:21:37;97503.34;;;22.41;58.40
28312;BME280;15572;48.810;9.148;2023-05-09T15:26:34;97496.97;;;22.07;56.12
28312;BME280;15572;48.810;9.148;2023-05-09T15:31:31;97484.09;;;21.97;57.30
28312;BME280;15572;48.810;9.148;2023-05-09T15:36:29;97480.28;;;21.88;57.56
28312;BME280;15572;48.810;9.148;2023-05-09T15:41:26;97472.34;;;21.81;58.68
28312;BME280;15572;48.810;9.148;2023-05-09T15:46:22;97470.16;;;21.78;59.52
28312;BME280;15572;48.810;9.148;2023-05-09T15:51:19;97465.84;;;21.67;60.21
28312;BME280;15572;48.810;9.148;2023-05-09T15:56:23;97460.34;;;21.62;60.93
28312;BME280;15572;48.810;9.148;2023-05-09T16:01:20;97446.13;;;21.45;62.41
28312;BME280;15572;48.810;9.148;2023-05-09T16:06:17;97444.50;;;21.39;64.20
28312;BME280;15572;48.810;9.148;2023-05-09T16:11:13;97450.56;;;21.41;65.45
28312;BME280;15572;48.810;9.148;2023-05-09T16:16:11;97445.91;;;21.36;66.51
28312;BME280;15572;48.810;9.148;2023-05-09T16:21:08;97430.56;;;21.10;65.37
28312;BME280;15572;48.810;9.148;2023-05-09T16:26:04;97425.19;;;20.85;67.38
28312;BME280;15572;48.810;9.148;2023-05-09T16:31:01;97426.06;;;20.75;69.70
28312;BME280;15572;48.810;9.148;2023-05-09T16:36:00;97415.91;;;20.66;71.88
28312;BME280;15572;48.810;9.148;2023-05-09T16:40:56;97413.44;;;20.59;73.47
28312;BME280;15572;48.810;9.148;2023-05-09T16:45:53;97416.22;;;20.54;73.75
28312;BME280;15572;48.810;9.148;2023-05-09T16:50:49;97410.47;;;20.45;75.05
28312;BME280;15572;48.810;9.148;2023-05-09T16:55:49;97402.53;;;20.34;76.49
28312;BME280;15572;48.810;9.148;2023-05-09T17:00:45;97399.22;;;20.16;77.48
28312;BME280;15572;48.810;9.148;2023-05-09T17:05:42;97397.31;;;20.02;77.27
28312;BME280;15572;48.810;9.148;2023-05-09T17:10:38;97398.94;;;19.88;77.32
28312;BME280;15572;48.810;9.148;2023-05-09T17:15:36;97397.59;;;19.80;77.53
28312;BME280;15572;48.810;9.148;2023-05-09T17:20:33;97394.56;;;19.76;78.00
28312;BME280;15572;48.810;9.148;2023-05-09T17:25:29;97412.69;;;19.67;79.92
28312;BME280;15572;48.810;9.148;2023-05-09T17:30:26;97431.88;;;19.47;84.42
28312;BME280;15572;48.810;9.148;2023-05-09T17:35:24;97425.16;;;19.13;83.90
28312;BME280;15572;48.810;9.148;2023-05-09T17:40:21;97435.56;;;18.54;92.57
28312;BME280;15572;48.810;9.148;2023-05-09T17:45:17;97440.72;;;17.49;100.00
28312;BME280;15572;48.810;9.148;2023-05-09T17:50:14;97452.88;;;16.88;100.00
28312;BME280;15572;48.810;9.148;2023-05-09T17:55:14;97469.59;;;16.53;100.00
28312;BME280;15572;48.810;9.148;2023-05-09T18:00:12;97463.34;;;16.36;100.00
28312;BME280;15572;48.810;9.148;2023-05-09T18:05:08;97457.41;;;16.22;100.00
28312;BME280;15572;48.810;9.148;2023-05-09T18:10:06;97467.81;;;16.09;100.00
28312;BME280;15572;48.810;9.148;2023-05-09T18:15:06;97454.53;;;15.95;100.00
28312;BME280;15572;48.810;9.148;2023-05-09T18:20:05;97455.84;;;15.93;100.00
28312;BME280;15572;48.810;9.148;2023-05-09T18:25:02;97457.72;;;15.92;100.00
28312;BME280;15572;48.810;9.148;2023-05-09T18:29:58;97471.97;;;15.78;100.00
28312;BME280;15572;48.810;9.148;2023-05-09T18:34:56;97477.84;;;15.70;100.00
28312;BME280;15572;48.810;9.148;2023-05-09T18:39:53;97479.47;;;15.71;100.00
28312;BME280;15572;48.810;9.148;2023-05-09T18:44:49;97484.28;;;15.80;100.00
28312;BME280;15572;48.810;9.148;2023-05-09T18:49:46;97480.59;;;15.86;100.00
28312;BME280;15572;48.810;9.148;2023-05-09T18:54:44;97491.22;;;15.88;100.00
28312;BME280;15572;48.810;9.148;2023-05-09T18:59:41;97484.47;;;15.90;100.00
28312;BME280;15572;48.810;9.148;2023-05-09T19:04:37;97483.13;;;15.93;100.00
28312;BME280;15572;48.810;9.148;2023-05-09T19:09:34;97491.59;;;15.91;100.00
28312;BME280;15572;48.810;9.148;2023-05-09T19:14:32;97490.47;;;15.92;100.00
28312;BME280;15572;48.810;9.148;2023-05-09T19:19:28;97496.44;;;15.89;100.00
28312;BME280;15572;48.810;9.148;2023-05-09T19:24:24;97505.78;;;15.93;100.00
28312;BME280;15572;48.810;9.148;2023-05-09T19:29:21;97509.59;;;15.92;100.00
28312;BME280;15572;48.810;9.148;2023-05-09T19:34:19;97509.69;;;15.81;100.00
28312;BME280;15572;48.810;9.148;2023-05-09T19:39:15;97516.34;;;15.73;100.00
28312;BME280;15572;48.810;9.148;2023-05-09T19:44:12;97520.22;;;15.61;100.00
28312;BME280;15572;48.810;9.148;2023-05-09T19:49:08;97518.56;;;15.60;100.00
28312;BME280;15572;48.810;9.148;2023-05-09T19:54:06;97514.28;;;15.64;100.00
28312;BME280;15572;48.810;9.148;2023-05-09T19:59:03;97513.44;;;15.63;100.00
28312;BME280;15572;48.810;9.148;2023-05-09T20:03:59;97508.88;;;15.52;100.00
28312;BME280;15572;48.810;9.148;2023-05-09T20:08:56;97505.34;;;15.40;100.00
28312;BME280;15572;48.810;9.148;2023-05-09T20:13:53;97509.03;;;15.34;100.00
28312;BME280;15572;48.810;9.148;2023-05-09T20:18:50;97513.41;;;15.35;100.00
28312;BME280;15572;48.810;9.148;2023-05-09T20:23:49;97499.31;;;15.38;100.00
28312;BME280;15572;48.810;9.148;2023-05-09T20:28:45;97514.34;;;15.40;100.00
28312;BME280;15572;48.810;9.148;2023-05-09T20:33:43;97514.47;;;15.34;100.00
28312;BME280;15572;48.810;9.148;2023-05-09T20:38:40;97514.88;;;15.26;100.00
28312;BME280;15572;48.810;9.148;2023-05-09T20:43:36;97503.38;;;15.24;100.00
28312;BME280;15572;48.810;9.148;2023-05-09T20:48:32;97512.16;;;15.26;100.00
28312;BME280;15572;48.810;9.148;2023-05-09T20:53:30;97515.72;;;15.26;100.00
28312;BME280;15572;48.810;9.148;2023-05-09T20:58:30;97498.19;;;15.22;100.00
28312;BME280;15572;48.810;9.148;2023-05-09T21:03:27;97503.88;;;15.21;100.00
28312;BME280;15572;48.810;9.148;2023-05-09T21:08:24;97500.56;;;15.18;100.00
28312;BME280;15572;48.810;9.148;2023-05-09T21:13:22;97497.50;;;15.15;100.00
28312;BME280;15572;48.810;9.148;2023-05-09T21:18:19;97497.38;;;15.10;100.00
28312;BME280;15572;48.810;9.148;2023-05-09T21:23:15;97490.50;;;15.07;100.00
28312;BME280;15572;48.810;9.148;2023-05-09T21:28:13;97496.47;;;15.04;100.00
28312;BME280;15572;48.810;9.148;2023-05-09T21:33:11;97488.75;;;15.01;100.00
28312;BME280;15572;48.810;9.148;2023-05-09T21:38:07;97479.91;;;14.94;100.00
28312;BME280;15572;48.810;9.148;2023-05-09T21:43:04;97476.81;;;14.91;100.00
28312;BME280;15572;48.810;9.148;2023-05-09T21:48:00;97479.78;;;14.89;100.00
28312;BME280;15572;48.810;9.148;2023-05-09T21:52:58;97476.81;;;14.91;100.00
28312;BME280;15572;48.810;9.148;2023-05-09T21:57:54;97478.72;;;14.90;100.00
28312;BME280;15572;48.810;9.148;2023-05-09T22:02:51;97472.09;;;14.86;100.00
28312;BME280;15572;48.810;9.148;2023-05-09T22:07:47;97473.41;;;14.84;100.00
28312;BME280;15572;48.810;9.148;2023-05-09T22:12:45;97480.28;;;14.74;100.00
28312;BME280;15572;48.810;9.148;2023-05-09T22:17:42;97480.06;;;14.64;100.00
28312;BME280;15572;48.810;9.148;2023-05-09T22:22:38;97485.28;;;14.66;100.00
28312;BME280;15572;48.810;9.148;2023-05-09T22:27:34;97489.19;;;14.58;100.00
28312;BME280;15572;48.810;9.148;2023-05-09T22:32:32;97488.41;;;14.46;100.00
28312;BME280;15572;48.810;9.148;2023-05-09T22:37:29;97491.34;;;14.45;100.00
28312;BME280;15572;48.810;9.148;2023-05-09T22:42:25;97487.63;;;14.27;100.00
28312;BME280;15572;48.810;9.148;2023-05-09T22:47:23;97485.88;;;14.21;100.00
28312;BME280;15572;48.810;9.148;2023-05-09T22:52:21;97490.34;;;14.16;100.00
28312;BME280;15572;48.810;9.148;2023-05-09T22:57:17;97494.72;;;14.05;100.00
28312;BME280;15572;48.810;9.148;2023-05-09T23:02:14;97494.59;;;14.00;100.00
28312;BME280;15572;48.810;9.148;2023-05-09T23:07:11;97493.31;;;13.91;100.00
28312;BME280;15572;48.810;9.148;2023-05-09T23:12:09;97497.56;;;13.87;100.00
28312;BME280;15572;48.810;9.148;2023-05-09T23:17:05;97496.59;;;13.81;100.00
28312;BME280;15572;48.810;9.148;2023-05-09T23:22:02;97500.59;;;13.79;100.00
28312;BME280;15572;48.810;9.148;2023-05-09T23:26:58;97492.09;;;13.75;100.00
28312;BME280;15572;48.810;9.148;2023-05-09T23:31:58;97487.13;;;13.72;100.00
28312;BME280;15572;48.810;9.148;2023-05-09T23:36:54;97492.78;;;13.71;100.00
28312;BME280;15572;48.810;9.148;2023-05-09T23:41:50;97499.91;;;13.72;100.00
28312;BME280;15572;48.810;9.148;2023-05-09T23:46:47;97485.34;;;13.66;100.00
28312;BME280;15572;48.810;9.148;2023-05-09T23:51:45;97497.06;;;13.67;100.00
28312;BME280;15572;48.810;9.148;2023-05-09T23:56:42;97499.91;;;13.72;100.00
